sensor_id;sensor_type;location;lat;lon;timestamp;P1;durP1;ratioP1;P2;durP2;ratioP2
30149;SDS011;16962;48.646;9.026;2024-03-02T00:02:44;20.88;;;13.45;;
30149;SDS011;16962;48.646;9.026;2024-03-02T00:05:32;19.33;;;11.98;;
30149;SDS011;16962;48.646;9.026;2024-03-02T00:08:23;21.42;;;12.93;;
30149;SDS011;16962;48.646;9.026;2024-03-02T00:11:13;20.33;;;12.48;;
30149;SDS011;16962;48.646;9.026;2024-03-02T00:14:02;21.02;;;13.75;;
30149;SDS011;16962;48.646;9.026;2024-03-02T00:16:50;19.38;;;13.40;;
30149;SDS011;16962;48.646;9.026;2024-03-02T00:19:40;20.55;;;13.70;;
30149;SDS011;16962;48.646;9.026;2024-03-02T00:22:27;23.10;;;14.98;;
30149;SDS011;16962;48.646;9.026;2024-03-02T00:25:15;21.55;;;13.90;;
30149;SDS011;16962;48.646;9.026;2024-03-02T00:28:04;22.73;;;13.38;;
30149;SDS011;16962;48.646;9.026;2024-03-02T00:33:47;23.73;;;14.60;;
30149;SDS011;16962;48.646;9.026;2024-03-02T00:36:35;22.77;;;14.02;;
30149;SDS011;16962;48.646;9.026;2024-03-02T00:39:24;21.75;;;13.98;;
30149;SDS011;16962;48.646;9.026;2024-03-02T00:42:11;26.33;;;14.95;;
30149;SDS011;16962;48.646;9.026;2024-03-02T00:45:00;21.45;;;14.52;;
30149;SDS011;16962;48.646;9.026;2024-03-02T00:47:47;23.63;;;15.05;;
30149;SDS011;16962;48.646;9.026;2024-03-02T00:50:38;22.55;;;14.35;;
30149;SDS011;16962;48.646;9.026;2024-03-02T00:53:26;26.20;;;15.25;;
30149;SDS011;16962;48.646;9.026;2024-03-02T00:56:14;28.65;;;16.17;;
30149;SDS011;16962;48.646;9.026;2024-03-02T00:59:02;26.70;;;16.75;;
30149;SDS011;16962;48.646;9.026;2024-03-02T01:01:49;26.83;;;16.90;;
30149;SDS011;16962;48.646;9.026;2024-03-02T01:04:37;25.55;;;16.73;;
30149;SDS011;16962;48.646;9.026;2024-03-02T01:07:25;28.88;;;18.70;;
30149;SDS011;16962;48.646;9.026;2024-03-02T01:10:12;30.20;;;19.08;;
30149;SDS011;16962;48.646;9.026;2024-03-02T01:13:01;33.75;;;19.25;;
30149;SDS011;16962;48.646;9.026;2024-03-02T01:15:50;31.67;;;19.27;;
30149;SDS011;16962;48.646;9.026;2024-03-02T01:18:40;34.40;;;20.80;;
30149;SDS011;16962;48.646;9.026;2024-03-02T01:21:31;37.85;;;21.27;;
30149;SDS011;16962;48.646;9.026;2024-03-02T01:24:19;32.40;;;20.13;;
30149;SDS011;16962;48.646;9.026;2024-03-02T01:27:07;35.72;;;19.48;;
30149;SDS011;16962;48.646;9.026;2024-03-02T01:29:57;33.17;;;20.85;;
30149;SDS011;16962;48.646;9.026;2024-03-02T01:32:47;37.05;;;21.23;;
30149;SDS011;16962;48.646;9.026;2024-03-02T01:35:35;37.45;;;21.40;;
30149;SDS011;16962;48.646;9.026;2024-03-02T01:38:22;36.75;;;20.98;;
30149;SDS011;16962;48.646;9.026;2024-03-02T01:41:09;41.20;;;23.05;;
30149;SDS011;16962;48.646;9.026;2024-03-02T01:43:58;37.20;;;21.48;;
30149;SDS011;16962;48.646;9.026;2024-03-02T01:46:45;39.53;;;21.58;;
30149;SDS011;16962;48.646;9.026;2024-03-02T01:49:33;41.92;;;23.05;;
30149;SDS011;16962;48.646;9.026;2024-03-02T01:52:20;44.08;;;24.52;;
30149;SDS011;16962;48.646;9.026;2024-03-02T01:55:08;42.40;;;23.27;;
30149;SDS011;16962;48.646;9.026;2024-03-02T01:57:56;45.30;;;24.90;;
30149;SDS011;16962;48.646;9.026;2024-03-02T02:00:46;41.55;;;23.73;;
30149;SDS011;16962;48.646;9.026;2024-03-02T02:03:35;38.95;;;22.50;;
30149;SDS011;16962;48.646;9.026;2024-03-02T02:06:24;36.80;;;22.17;;
30149;SDS011;16962;48.646;9.026;2024-03-02T02:09:12;34.75;;;21.85;;
30149;SDS011;16962;48.646;9.026;2024-03-02T02:11:59;35.83;;;22.30;;
30149;SDS011;16962;48.646;9.026;2024-03-02T02:14:47;35.03;;;21.95;;
30149;SDS011;16962;48.646;9.026;2024-03-02T02:17:38;36.45;;;21.55;;
30149;SDS011;16962;48.646;9.026;2024-03-02T02:20:25;38.08;;;21.88;;
30149;SDS011;16962;48.646;9.026;2024-03-02T02:23:14;32.08;;;20.77;;
30149;SDS011;16962;48.646;9.026;2024-03-02T02:26:03;37.83;;;22.17;;
30149;SDS011;16962;48.646;9.026;2024-03-02T02:28:54;35.72;;;21.20;;
30149;SDS011;16962;48.646;9.026;2024-03-02T02:31:41;39.92;;;22.60;;
30149;SDS011;16962;48.646;9.026;2024-03-02T02:34:29;38.63;;;21.58;;
30149;SDS011;16962;48.646;9.026;2024-03-02T02:37:17;37.28;;;21.92;;
30149;SDS011;16962;48.646;9.026;2024-03-02T02:40:05;36.08;;;22.65;;
30149;SDS011;16962;48.646;9.026;2024-03-02T02:42:56;38.00;;;21.63;;
30149;SDS011;16962;48.646;9.026;2024-03-02T02:45:44;33.53;;;20.25;;
30149;SDS011;16962;48.646;9.026;2024-03-02T02:48:31;33.58;;;19.95;;
30149;SDS011;16962;48.646;9.026;2024-03-02T02:51:19;36.15;;;22.15;;
30149;SDS011;16962;48.646;9.026;2024-03-02T02:54:07;39.42;;;21.67;;
30149;SDS011;16962;48.646;9.026;2024-03-02T02:56:54;41.67;;;21.65;;
30149;SDS011;16962;48.646;9.026;2024-03-02T02:59:41;38.22;;;21.83;;
30149;SDS011;16962;48.646;9.026;2024-03-02T03:02:29;40.92;;;23.20;;
30149;SDS011;16962;48.646;9.026;2024-03-02T03:05:17;41.20;;;21.63;;
30149;SDS011;16962;48.646;9.026;2024-03-02T03:08:05;38.90;;;22.23;;
30149;SDS011;16962;48.646;9.026;2024-03-02T03:11:00;39.92;;;21.90;;
30149;SDS011;16962;48.646;9.026;2024-03-02T03:13:48;42.25;;;24.25;;
30149;SDS011;16962;48.646;9.026;2024-03-02T03:16:39;44.70;;;24.00;;
30149;SDS011;16962;48.646;9.026;2024-03-02T03:19:26;43.13;;;24.52;;
30149;SDS011;16962;48.646;9.026;2024-03-02T03:22:17;36.17;;;21.58;;
30149;SDS011;16962;48.646;9.026;2024-03-02T03:25:06;40.63;;;23.35;;
30149;SDS011;16962;48.646;9.026;2024-03-02T03:27:57;35.35;;;21.23;;
30149;SDS011;16962;48.646;9.026;2024-03-02T03:30:45;39.35;;;22.88;;
30149;SDS011;16962;48.646;9.026;2024-03-02T03:33:33;39.15;;;22.40;;
30149;SDS011;16962;48.646;9.026;2024-03-02T03:36:21;37.53;;;21.77;;
30149;SDS011;16962;48.646;9.026;2024-03-02T03:39:08;42.30;;;22.70;;
30149;SDS011;16962;48.646;9.026;2024-03-02T03:41:57;34.95;;;19.52;;
30149;SDS011;16962;48.646;9.026;2024-03-02T03:44:44;38.45;;;21.80;;
30149;SDS011;16962;48.646;9.026;2024-03-02T03:47:32;36.78;;;20.92;;
30149;SDS011;16962;48.646;9.026;2024-03-02T03:50:20;35.45;;;21.15;;
30149;SDS011;16962;48.646;9.026;2024-03-02T03:53:07;40.08;;;21.77;;
30149;SDS011;16962;48.646;9.026;2024-03-02T03:55:55;39.83;;;22.80;;
30149;SDS011;16962;48.646;9.026;2024-03-02T03:58:42;40.25;;;22.45;;
30149;SDS011;16962;48.646;9.026;2024-03-02T04:01:30;44.58;;;23.98;;
30149;SDS011;16962;48.646;9.026;2024-03-02T04:04:21;43.40;;;22.65;;
30149;SDS011;16962;48.646;9.026;2024-03-02T04:07:09;39.38;;;22.42;;
30149;SDS011;16962;48.646;9.026;2024-03-02T04:09:57;40.47;;;22.67;;
30149;SDS011;16962;48.646;9.026;2024-03-02T04:12:44;41.95;;;22.10;;
30149;SDS011;16962;48.646;9.026;2024-03-02T04:15:33;41.72;;;23.40;;
30149;SDS011;16962;48.646;9.026;2024-03-02T04:18:21;43.95;;;23.15;;
30149;SDS011;16962;48.646;9.026;2024-03-02T04:21:08;43.45;;;22.80;;
30149;SDS011;16962;48.646;9.026;2024-03-02T04:23:55;43.38;;;22.50;;
30149;SDS011;16962;48.646;9.026;2024-03-02T04:26:46;43.53;;;22.15;;
30149;SDS011;16962;48.646;9.026;2024-03-02T04:29:34;42.67;;;21.98;;
30149;SDS011;16962;48.646;9.026;2024-03-02T04:32:24;45.45;;;23.77;;
30149;SDS011;16962;48.646;9.026;2024-03-02T04:35:14;43.97;;;24.67;;
30149;SDS011;16962;48.646;9.026;2024-03-02T04:38:04;39.95;;;22.60;;
30149;SDS011;16962;48.646;9.026;2024-03-02T04:40:52;38.97;;;21.48;;
30149;SDS011;16962;48.646;9.026;2024-03-02T04:43:39;38.28;;;21.63;;
30149;SDS011;16962;48.646;9.026;2024-03-02T04:46:27;45.03;;;23.52;;
30149;SDS011;16962;48.646;9.026;2024-03-02T04:49:15;44.30;;;23.35;;
30149;SDS011;16962;48.646;9.026;2024-03-02T04:52:03;41.20;;;23.17;;
30149;SDS011;16962;48.646;9.026;2024-03-02T04:54:51;40.75;;;23.70;;
30149;SDS011;16962;48.646;9.026;2024-03-02T04:58:04;43.70;;;22.95;;
30149;SDS011;16962;48.646;9.026;2024-03-02T05:00:52;43.30;;;23.83;;
30149;SDS011;16962;48.646;9.026;2024-03-02T05:03:40;50.08;;;24.90;;
30149;SDS011;16962;48.646;9.026;2024-03-02T05:06:28;45.97;;;24.67;;
30149;SDS011;16962;48.646;9.026;2024-03-02T05:09:16;46.97;;;23.58;;
30149;SDS011;16962;48.646;9.026;2024-03-02T05:12:06;40.25;;;22.23;;
30149;SDS011;16962;48.646;9.026;2024-03-02T05:15:03;47.33;;;23.95;;
30149;SDS011;16962;48.646;9.026;2024-03-02T05:17:51;42.00;;;22.67;;
30149;SDS011;16962;48.646;9.026;2024-03-02T05:20:40;45.13;;;23.00;;
30149;SDS011;16962;48.646;9.026;2024-03-02T05:23:28;46.05;;;23.55;;
30149;SDS011;16962;48.646;9.026;2024-03-02T05:26:15;45.33;;;23.10;;
30149;SDS011;16962;48.646;9.026;2024-03-02T05:29:03;50.20;;;25.52;;
30149;SDS011;16962;48.646;9.026;2024-03-02T05:31:51;49.13;;;25.15;;
30149;SDS011;16962;48.646;9.026;2024-03-02T05:34:38;46.30;;;22.90;;
30149;SDS011;16962;48.646;9.026;2024-03-02T05:37:26;48.88;;;24.50;;
30149;SDS011;16962;48.646;9.026;2024-03-02T05:40:14;45.55;;;24.00;;
30149;SDS011;16962;48.646;9.026;2024-03-02T05:43:01;51.33;;;25.48;;
30149;SDS011;16962;48.646;9.026;2024-03-02T05:45:51;48.28;;;24.45;;
30149;SDS011;16962;48.646;9.026;2024-03-02T05:48:40;43.45;;;23.88;;
30149;SDS011;16962;48.646;9.026;2024-03-02T05:51:27;42.25;;;21.85;;
30149;SDS011;16962;48.646;9.026;2024-03-02T05:54:15;41.42;;;21.80;;
30149;SDS011;16962;48.646;9.026;2024-03-02T05:57:03;41.72;;;22.63;;
30149;SDS011;16962;48.646;9.026;2024-03-02T06:00:04;46.58;;;22.20;;
30149;SDS011;16962;48.646;9.026;2024-03-02T06:02:55;40.85;;;22.63;;
30149;SDS011;16962;48.646;9.026;2024-03-02T06:05:43;40.25;;;22.27;;
30149;SDS011;16962;48.646;9.026;2024-03-02T06:08:30;37.28;;;21.40;;
30149;SDS011;16962;48.646;9.026;2024-03-02T06:11:21;36.08;;;20.10;;
30149;SDS011;16962;48.646;9.026;2024-03-02T06:14:09;35.65;;;20.85;;
30149;SDS011;16962;48.646;9.026;2024-03-02T06:16:56;32.83;;;18.80;;
30149;SDS011;16962;48.646;9.026;2024-03-02T06:19:44;38.92;;;20.48;;
30149;SDS011;16962;48.646;9.026;2024-03-02T06:22:31;37.03;;;20.95;;
30149;SDS011;16962;48.646;9.026;2024-03-02T06:25:18;32.70;;;19.85;;
30149;SDS011;16962;48.646;9.026;2024-03-02T06:28:09;41.88;;;19.92;;
30149;SDS011;16962;48.646;9.026;2024-03-02T06:30:57;32.08;;;18.35;;
30149;SDS011;16962;48.646;9.026;2024-03-02T06:33:45;34.97;;;20.15;;
30149;SDS011;16962;48.646;9.026;2024-03-02T06:36:35;37.35;;;20.58;;
30149;SDS011;16962;48.646;9.026;2024-03-02T06:39:23;35.88;;;19.92;;
30149;SDS011;16962;48.646;9.026;2024-03-02T06:42:10;34.53;;;20.08;;
30149;SDS011;16962;48.646;9.026;2024-03-02T06:44:57;35.85;;;19.73;;
30149;SDS011;16962;48.646;9.026;2024-03-02T06:47:49;33.58;;;20.75;;
30149;SDS011;16962;48.646;9.026;2024-03-02T06:50:37;39.28;;;20.70;;
30149;SDS011;16962;48.646;9.026;2024-03-02T06:53:24;37.75;;;22.75;;
30149;SDS011;16962;48.646;9.026;2024-03-02T06:56:12;39.90;;;22.40;;
30149;SDS011;16962;48.646;9.026;2024-03-02T06:59:02;42.35;;;23.15;;
30149;SDS011;16962;48.646;9.026;2024-03-02T07:01:51;40.42;;;23.67;;
30149;SDS011;16962;48.646;9.026;2024-03-02T07:04:39;42.72;;;23.63;;
30149;SDS011;16962;48.646;9.026;2024-03-02T07:07:27;35.45;;;22.00;;
30149;SDS011;16962;48.646;9.026;2024-03-02T07:10:15;36.28;;;21.13;;
30149;SDS011;16962;48.646;9.026;2024-03-02T07:13:03;31.42;;;19.60;;
30149;SDS011;16962;48.646;9.026;2024-03-02T07:15:50;28.60;;;18.80;;
30149;SDS011;16962;48.646;9.026;2024-03-02T07:18:50;32.88;;;18.90;;
30149;SDS011;16962;48.646;9.026;2024-03-02T07:21:40;31.10;;;18.73;;
30149;SDS011;16962;48.646;9.026;2024-03-02T07:24:29;28.23;;;17.27;;
30149;SDS011;16962;48.646;9.026;2024-03-02T07:27:17;29.60;;;17.92;;
30149;SDS011;16962;48.646;9.026;2024-03-02T07:30:05;29.63;;;18.23;;
30149;SDS011;16962;48.646;9.026;2024-03-02T07:32:54;21.98;;;14.27;;
30149;SDS011;16962;48.646;9.026;2024-03-02T07:35:41;19.88;;;13.05;;
30149;SDS011;16962;48.646;9.026;2024-03-02T07:38:29;23.85;;;13.63;;
30149;SDS011;16962;48.646;9.026;2024-03-02T07:41:18;21.90;;;13.20;;
30149;SDS011;16962;48.646;9.026;2024-03-02T07:44:07;18.23;;;10.77;;
30149;SDS011;16962;48.646;9.026;2024-03-02T07:46:55;17.08;;;10.82;;
30149;SDS011;16962;48.646;9.026;2024-03-02T07:49:44;15.77;;;10.32;;
30149;SDS011;16962;48.646;9.026;2024-03-02T07:52:32;13.90;;;9.73;;
30149;SDS011;16962;48.646;9.026;2024-03-02T07:55:22;20.17;;;9.52;;
30149;SDS011;16962;48.646;9.026;2024-03-02T07:58:11;17.75;;;10.18;;
30149;SDS011;16962;48.646;9.026;2024-03-02T08:01:00;12.90;;;8.75;;
30149;SDS011;16962;48.646;9.026;2024-03-02T08:03:49;16.60;;;10.32;;
30149;SDS011;16962;48.646;9.026;2024-03-02T08:06:39;18.05;;;11.40;;
30149;SDS011;16962;48.646;9.026;2024-03-02T08:09:27;17.85;;;11.65;;
30149;SDS011;16962;48.646;9.026;2024-03-02T08:12:15;17.88;;;11.88;;
30149;SDS011;16962;48.646;9.026;2024-03-02T08:15:02;20.65;;;12.65;;
30149;SDS011;16962;48.646;9.026;2024-03-02T08:17:50;19.38;;;11.63;;
30149;SDS011;16962;48.646;9.026;2024-03-02T08:20:38;16.42;;;10.40;;
30149;SDS011;16962;48.646;9.026;2024-03-02T08:23:27;17.60;;;9.98;;
30149;SDS011;16962;48.646;9.026;2024-03-02T08:26:14;13.25;;;9.23;;
30149;SDS011;16962;48.646;9.026;2024-03-02T08:29:04;14.60;;;9.30;;
30149;SDS011;16962;48.646;9.026;2024-03-02T08:31:51;15.00;;;9.70;;
30149;SDS011;16962;48.646;9.026;2024-03-02T08:34:39;16.88;;;9.55;;
30149;SDS011;16962;48.646;9.026;2024-03-02T08:37:27;12.68;;;8.95;;
30149;SDS011;16962;48.646;9.026;2024-03-02T08:40:15;15.93;;;9.52;;
30149;SDS011;16962;48.646;9.026;2024-03-02T08:43:05;14.52;;;9.90;;
30149;SDS011;16962;48.646;9.026;2024-03-02T08:45:53;17.98;;;9.82;;
30149;SDS011;16962;48.646;9.026;2024-03-02T08:48:41;11.45;;;8.90;;
30149;SDS011;16962;48.646;9.026;2024-03-02T08:51:29;11.27;;;8.10;;
30149;SDS011;16962;48.646;9.026;2024-03-02T08:54:19;11.35;;;8.10;;
30149;SDS011;16962;48.646;9.026;2024-03-02T08:57:09;11.57;;;7.63;;
30149;SDS011;16962;48.646;9.026;2024-03-02T08:59:59;11.73;;;8.07;;
30149;SDS011;16962;48.646;9.026;2024-03-02T09:02:47;8.95;;;6.85;;
30149;SDS011;16962;48.646;9.026;2024-03-02T09:05:35;8.50;;;6.70;;
30149;SDS011;16962;48.646;9.026;2024-03-02T09:08:24;10.85;;;6.95;;
30149;SDS011;16962;48.646;9.026;2024-03-02T09:11:12;9.63;;;6.22;;
30149;SDS011;16962;48.646;9.026;2024-03-02T09:13:59;8.90;;;6.40;;
30149;SDS011;16962;48.646;9.026;2024-03-02T09:16:47;7.07;;;5.75;;
30149;SDS011;16962;48.646;9.026;2024-03-02T09:19:35;7.13;;;5.63;;
30149;SDS011;16962;48.646;9.026;2024-03-02T09:22:22;7.22;;;5.38;;
30149;SDS011;16962;48.646;9.026;2024-03-02T09:25:10;7.72;;;5.32;;
30149;SDS011;16962;48.646;9.026;2024-03-02T09:27:58;8.77;;;5.05;;
30149;SDS011;16962;48.646;9.026;2024-03-02T09:30:47;4.32;;;3.85;;
30149;SDS011;16962;48.646;9.026;2024-03-02T09:33:34;6.25;;;4.88;;
30149;SDS011;16962;48.646;9.026;2024-03-02T09:36:22;7.65;;;4.20;;
30149;SDS011;16962;48.646;9.026;2024-03-02T09:39:12;5.65;;;3.88;;
30149;SDS011;16962;48.646;9.026;2024-03-02T09:42:02;5.97;;;4.15;;
30149;SDS011;16962;48.646;9.026;2024-03-02T09:44:51;5.35;;;3.40;;
30149;SDS011;16962;48.646;9.026;2024-03-02T09:47:40;4.93;;;3.40;;
30149;SDS011;16962;48.646;9.026;2024-03-02T09:50:27;2.63;;;2.42;;
30149;SDS011;16962;48.646;9.026;2024-03-02T09:53:15;4.18;;;2.75;;
30149;SDS011;16962;48.646;9.026;2024-03-02T09:56:06;3.20;;;2.78;;
30149;SDS011;16962;48.646;9.026;2024-03-02T09:58:54;2.95;;;2.08;;
30149;SDS011;16962;48.646;9.026;2024-03-02T10:01:55;3.03;;;2.50;;
30149;SDS011;16962;48.646;9.026;2024-03-02T10:04:45;5.30;;;2.25;;
30149;SDS011;16962;48.646;9.026;2024-03-02T10:07:35;2.58;;;2.38;;
30149;SDS011;16962;48.646;9.026;2024-03-02T10:10:24;2.13;;;1.92;;
30149;SDS011;16962;48.646;9.026;2024-03-02T10:13:27;3.78;;;2.78;;
30149;SDS011;16962;48.646;9.026;2024-03-02T10:16:14;2.63;;;1.65;;
30149;SDS011;16962;48.646;9.026;2024-03-02T10:19:22;1.65;;;1.55;;
30149;SDS011;16962;48.646;9.026;2024-03-02T10:22:11;4.82;;;1.77;;
30149;SDS011;16962;48.646;9.026;2024-03-02T10:24:58;1.60;;;1.40;;
30149;SDS011;16962;48.646;9.026;2024-03-02T10:27:46;1.65;;;1.35;;
30149;SDS011;16962;48.646;9.026;2024-03-02T10:30:37;1.65;;;1.45;;
30149;SDS011;16962;48.646;9.026;2024-03-02T10:33:25;2.13;;;1.40;;
30149;SDS011;16962;48.646;9.026;2024-03-02T10:36:12;2.17;;;1.80;;
30149;SDS011;16962;48.646;9.026;2024-03-02T10:39:04;1.67;;;1.20;;
30149;SDS011;16962;48.646;9.026;2024-03-02T10:41:53;1.50;;;1.20;;
30149;SDS011;16962;48.646;9.026;2024-03-02T10:44:43;2.03;;;1.13;;
30149;SDS011;16962;48.646;9.026;2024-03-02T10:47:32;1.45;;;1.30;;
30149;SDS011;16962;48.646;9.026;2024-03-02T10:50:23;1.95;;;1.15;;
30149;SDS011;16962;48.646;9.026;2024-03-02T10:53:11;1.15;;;1.08;;
30149;SDS011;16962;48.646;9.026;2024-03-02T10:55:59;1.67;;;0.90;;
30149;SDS011;16962;48.646;9.026;2024-03-02T10:58:50;1.08;;;0.90;;
30149;SDS011;16962;48.646;9.026;2024-03-02T11:01:42;1.20;;;0.88;;
30149;SDS011;16962;48.646;9.026;2024-03-02T11:04:31;1.00;;;0.90;;
30149;SDS011;16962;48.646;9.026;2024-03-02T11:07:19;0.70;;;0.63;;
30149;SDS011;16962;48.646;9.026;2024-03-02T11:10:09;1.45;;;0.95;;
30149;SDS011;16962;48.646;9.026;2024-03-02T11:13:00;0.70;;;0.68;;
30149;SDS011;16962;48.646;9.026;2024-03-02T11:15:52;1.25;;;0.88;;
30149;SDS011;16962;48.646;9.026;2024-03-02T11:18:43;0.80;;;0.77;;
30149;SDS011;16962;48.646;9.026;2024-03-02T11:21:32;0.90;;;0.63;;
30149;SDS011;16962;48.646;9.026;2024-03-02T11:27:11;0.60;;;0.60;;
30149;SDS011;16962;48.646;9.026;2024-03-02T11:29:59;0.50;;;0.40;;
30149;SDS011;16962;48.646;9.026;2024-03-02T11:32:54;0.60;;;0.50;;
30149;SDS011;16962;48.646;9.026;2024-03-02T11:35:46;0.95;;;0.50;;
30149;SDS011;16962;48.646;9.026;2024-03-02T11:38:35;0.77;;;0.70;;
30149;SDS011;16962;48.646;9.026;2024-03-02T11:41:23;0.70;;;0.70;;
30149;SDS011;16962;48.646;9.026;2024-03-02T11:44:16;1.58;;;0.80;;
30149;SDS011;16962;48.646;9.026;2024-03-02T11:47:07;1.52;;;0.80;;
30149;SDS011;16962;48.646;9.026;2024-03-02T11:49:57;0.95;;;0.90;;
30149;SDS011;16962;48.646;9.026;2024-03-02T11:52:49;0.60;;;0.60;;
30149;SDS011;16962;48.646;9.026;2024-03-02T11:55:36;1.35;;;0.90;;
30149;SDS011;16962;48.646;9.026;2024-03-02T11:58:31;1.92;;;1.13;;
30149;SDS011;16962;48.646;9.026;2024-03-02T12:01:24;1.25;;;1.10;;
30149;SDS011;16962;48.646;9.026;2024-03-02T12:04:11;2.10;;;0.98;;
30149;SDS011;16962;48.646;9.026;2024-03-02T12:07:00;1.70;;;1.00;;
30149;SDS011;16962;48.646;9.026;2024-03-02T12:09:49;1.27;;;0.85;;
30149;SDS011;16962;48.646;9.026;2024-03-02T12:15:52;0.82;;;0.70;;
30149;SDS011;16962;48.646;9.026;2024-03-02T12:18:42;1.02;;;0.50;;
30149;SDS011;16962;48.646;9.026;2024-03-02T12:21:33;1.85;;;0.60;;
30149;SDS011;16962;48.646;9.026;2024-03-02T12:24:21;1.40;;;1.05;;
30149;SDS011;16962;48.646;9.026;2024-03-02T12:27:10;0.95;;;0.63;;
30149;SDS011;16962;48.646;9.026;2024-03-02T12:29:58;0.60;;;0.60;;
30149;SDS011;16962;48.646;9.026;2024-03-02T12:32:46;1.30;;;1.13;;
30149;SDS011;16962;48.646;9.026;2024-03-02T12:35:35;1.80;;;0.80;;
30149;SDS011;16962;48.646;9.026;2024-03-02T12:38:25;0.80;;;0.65;;
30149;SDS011;16962;48.646;9.026;2024-03-02T12:41:16;1.27;;;0.80;;
30149;SDS011;16962;48.646;9.026;2024-03-02T12:44:04;0.40;;;0.40;;
30149;SDS011;16962;48.646;9.026;2024-03-02T12:46:54;0.50;;;0.50;;
30149;SDS011;16962;48.646;9.026;2024-03-02T12:49:45;0.70;;;0.70;;
30149;SDS011;16962;48.646;9.026;2024-03-02T12:52:33;0.70;;;0.60;;
30149;SDS011;16962;48.646;9.026;2024-03-02T12:55:26;1.00;;;0.88;;
30149;SDS011;16962;48.646;9.026;2024-03-02T12:58:19;0.77;;;0.50;;
30149;SDS011;16962;48.646;9.026;2024-03-02T13:01:10;0.90;;;0.80;;
30149;SDS011;16962;48.646;9.026;2024-03-02T13:04:00;3.05;;;1.10;;
30149;SDS011;16962;48.646;9.026;2024-03-02T13:06:47;0.57;;;0.45;;
30149;SDS011;16962;48.646;9.026;2024-03-02T13:09:37;1.77;;;0.75;;
30149;SDS011;16962;48.646;9.026;2024-03-02T13:12:25;0.40;;;0.38;;
30149;SDS011;16962;48.646;9.026;2024-03-02T13:15:15;0.63;;;0.40;;
30149;SDS011;16962;48.646;9.026;2024-03-02T13:18:04;0.45;;;0.30;;
30149;SDS011;16962;48.646;9.026;2024-03-02T13:20:54;0.60;;;0.45;;
30149;SDS011;16962;48.646;9.026;2024-03-02T13:23:43;0.63;;;0.50;;
30149;SDS011;16962;48.646;9.026;2024-03-02T13:26:32;0.50;;;0.30;;
30149;SDS011;16962;48.646;9.026;2024-03-02T13:29:22;0.90;;;0.50;;
30149;SDS011;16962;48.646;9.026;2024-03-02T13:32:10;0.50;;;0.50;;
30149;SDS011;16962;48.646;9.026;2024-03-02T13:34:59;0.98;;;0.63;;
30149;SDS011;16962;48.646;9.026;2024-03-02T13:37:48;0.93;;;0.60;;
30149;SDS011;16962;48.646;9.026;2024-03-02T13:40:36;0.65;;;0.50;;
30149;SDS011;16962;48.646;9.026;2024-03-02T13:43:24;2.15;;;0.90;;
30149;SDS011;16962;48.646;9.026;2024-03-02T13:46:13;2.33;;;0.60;;
30149;SDS011;16962;48.646;9.026;2024-03-02T13:49:00;0.43;;;0.43;;
30149;SDS011;16962;48.646;9.026;2024-03-02T13:51:49;0.75;;;0.60;;
30149;SDS011;16962;48.646;9.026;2024-03-02T13:54:37;0.60;;;0.50;;
30149;SDS011;16962;48.646;9.026;2024-03-02T13:57:28;0.70;;;0.70;;
30149;SDS011;16962;48.646;9.026;2024-03-02T14:00:18;1.10;;;0.88;;
30149;SDS011;16962;48.646;9.026;2024-03-02T14:03:07;0.73;;;0.55;;
30149;SDS011;16962;48.646;9.026;2024-03-02T14:05:54;1.45;;;0.80;;
30149;SDS011;16962;48.646;9.026;2024-03-02T14:08:42;1.58;;;0.80;;
30149;SDS011;16962;48.646;9.026;2024-03-02T14:11:31;2.15;;;0.70;;
30149;SDS011;16962;48.646;9.026;2024-03-02T14:14:19;3.33;;;0.73;;
30149;SDS011;16962;48.646;9.026;2024-03-02T14:17:07;1.60;;;0.82;;
30149;SDS011;16962;48.646;9.026;2024-03-02T14:19:58;3.33;;;1.00;;
30149;SDS011;16962;48.646;9.026;2024-03-02T14:22:46;2.55;;;1.23;;
30149;SDS011;16962;48.646;9.026;2024-03-02T14:25:34;1.60;;;1.10;;
30149;SDS011;16962;48.646;9.026;2024-03-02T14:28:22;3.08;;;1.10;;
30149;SDS011;16962;48.646;9.026;2024-03-02T14:31:30;1.77;;;1.33;;
30149;SDS011;16962;48.646;9.026;2024-03-02T14:34:18;1.13;;;1.02;;
30149;SDS011;16962;48.646;9.026;2024-03-02T14:37:06;2.03;;;1.10;;
30149;SDS011;16962;48.646;9.026;2024-03-02T14:39:53;1.60;;;1.23;;
30149;SDS011;16962;48.646;9.026;2024-03-02T14:42:42;1.40;;;1.17;;
30149;SDS011;16962;48.646;9.026;2024-03-02T14:45:34;1.17;;;0.95;;
30149;SDS011;16962;48.646;9.026;2024-03-02T14:48:21;1.75;;;1.08;;
30149;SDS011;16962;48.646;9.026;2024-03-02T14:51:10;1.50;;;1.17;;
30149;SDS011;16962;48.646;9.026;2024-03-02T14:53:58;2.97;;;1.25;;
30149;SDS011;16962;48.646;9.026;2024-03-02T14:56:47;1.08;;;0.98;;
30149;SDS011;16962;48.646;9.026;2024-03-02T14:59:34;1.08;;;0.98;;
30149;SDS011;16962;48.646;9.026;2024-03-02T15:02:22;2.08;;;1.00;;
30149;SDS011;16962;48.646;9.026;2024-03-02T15:05:09;2.15;;;1.10;;
30149;SDS011;16962;48.646;9.026;2024-03-02T15:07:57;1.35;;;1.08;;
30149;SDS011;16962;48.646;9.026;2024-03-02T15:10:46;3.17;;;1.30;;
30149;SDS011;16962;48.646;9.026;2024-03-02T15:13:34;2.30;;;1.35;;
30149;SDS011;16962;48.646;9.026;2024-03-02T15:16:21;2.92;;;1.95;;
30149;SDS011;16962;48.646;9.026;2024-03-02T15:19:09;3.30;;;2.38;;
30149;SDS011;16962;48.646;9.026;2024-03-02T15:21:56;1.88;;;1.33;;
30149;SDS011;16962;48.646;9.026;2024-03-02T15:24:47;1.65;;;1.10;;
30149;SDS011;16962;48.646;9.026;2024-03-02T15:27:38;1.63;;;0.85;;
30149;SDS011;16962;48.646;9.026;2024-03-02T15:30:26;6.65;;;4.68;;
30149;SDS011;16962;48.646;9.026;2024-03-02T15:33:14;6.18;;;3.80;;
30149;SDS011;16962;48.646;9.026;2024-03-02T15:36:06;4.27;;;3.13;;
30149;SDS011;16962;48.646;9.026;2024-03-02T15:38:54;2.42;;;2.13;;
30149;SDS011;16962;48.646;9.026;2024-03-02T15:41:45;5.10;;;1.75;;
30149;SDS011;16962;48.646;9.026;2024-03-02T15:44:32;3.67;;;1.80;;
30149;SDS011;16962;48.646;9.026;2024-03-02T15:47:21;3.08;;;1.90;;
30149;SDS011;16962;48.646;9.026;2024-03-02T15:50:10;2.17;;;1.52;;
30149;SDS011;16962;48.646;9.026;2024-03-02T15:53:01;4.38;;;1.50;;
30149;SDS011;16962;48.646;9.026;2024-03-02T15:55:52;3.03;;;1.23;;
30149;SDS011;16962;48.646;9.026;2024-03-02T15:58:41;1.30;;;1.20;;
30149;SDS011;16962;48.646;9.026;2024-03-02T16:01:30;3.20;;;1.27;;
30149;SDS011;16962;48.646;9.026;2024-03-02T16:04:21;4.15;;;1.77;;
30149;SDS011;16962;48.646;9.026;2024-03-02T16:07:09;3.55;;;1.90;;
30149;SDS011;16962;48.646;9.026;2024-03-02T16:09:57;4.22;;;2.10;;
30149;SDS011;16962;48.646;9.026;2024-03-02T16:12:45;5.22;;;3.42;;
30149;SDS011;16962;48.646;9.026;2024-03-02T16:15:37;3.80;;;2.03;;
30149;SDS011;16962;48.646;9.026;2024-03-02T16:18:25;4.55;;;2.60;;
30149;SDS011;16962;48.646;9.026;2024-03-02T16:21:13;4.88;;;2.53;;
30149;SDS011;16962;48.646;9.026;2024-03-02T16:24:01;2.03;;;1.60;;
30149;SDS011;16962;48.646;9.026;2024-03-02T16:26:49;2.70;;;1.40;;
30149;SDS011;16962;48.646;9.026;2024-03-02T16:29:36;4.40;;;2.53;;
30149;SDS011;16962;48.646;9.026;2024-03-02T16:32:25;4.47;;;1.58;;
30149;SDS011;16962;48.646;9.026;2024-03-02T16:35:15;1.73;;;1.42;;
30149;SDS011;16962;48.646;9.026;2024-03-02T16:38:03;1.70;;;1.23;;
30149;SDS011;16962;48.646;9.026;2024-03-02T16:40:51;2.58;;;1.60;;
30149;SDS011;16962;48.646;9.026;2024-03-02T16:43:42;2.28;;;1.60;;
30149;SDS011;16962;48.646;9.026;2024-03-02T16:46:32;1.73;;;1.60;;
30149;SDS011;16962;48.646;9.026;2024-03-02T16:49:20;2.15;;;1.60;;
30149;SDS011;16962;48.646;9.026;2024-03-02T16:52:07;2.38;;;1.45;;